sensor_id;sensor_type;location;lat;lon;timestamp;pressure;altitude;pressure_sealevel;temperature;humidity
77867;BME280;67271;59.120;37.970;2023-04-24T00:00:04;99702.81;;;9.66;53.27
77867;BME280;67271;59.120;37.970;2023-04-24T00:02:52;99704.47;;;9.61;53.18
77867;BME280;67271;59.120;37.970;2023-04-24T00:05:23;99699.03;;;9.54;53.64
77867;BME280;67271;59.120;37.970;2023-04-24T00:07:50;99696.53;;;9.53;53.77
77867;BME280;67271;59.120;37.970;2023-04-24T00:10:18;99698.97;;;9.48;53.92
77867;BME280;67271;59.120;37.970;2023-04-24T00:12:44;99696.72;;;9.51;54.03
77867;BME280;67271;59.120;37.970;2023-04-24T00:15:10;99694.25;;;9.56;53.88
77867;BME280;67271;59.120;37.970;2023-04-24T00:17:36;99702.28;;;9.43;53.76
77867;BME280;67271;59.120;37.970;2023-04-24T00:20:03;99704.56;;;9.40;53.93
77867;BME280;67271;59.120;37.970;2023-04-24T00:22:31;99698.34;;;9.39;54.35
77867;BME280;67271;59.120;37.970;2023-04-24T00:24:57;99699.16;;;9.40;54.25
77867;BME280;67271;59.120;37.970;2023-04-24T00:27:23;99703.47;;;9.34;54.46
77867;BME280;67271;59.120;37.970;2023-04-24T00:29:49;99694.13;;;9.30;54.29
77867;BME280;67271;59.120;37.970;2023-04-24T00:32:15;99698.75;;;9.43;54.36
77867;BME280;67271;59.120;37.970;2023-04-24T00:34:41;99691.13;;;9.53;53.92
77867;BME280;67271;59.120;37.970;2023-04-24T00:37:07;99692.97;;;9.46;53.87
77867;BME280;67271;59.120;37.970;2023-04-24T00:39:33;99699.38;;;9.38;54.28
77867;BME280;67271;59.120;37.970;2023-04-24T00:41:59;99697.22;;;9.27;54.64
77867;BME280;67271;59.120;37.970;2023-04-24T00:44:27;99694.06;;;9.17;54.92
77867;BME280;67271;59.120;37.970;2023-04-24T00:46:54;99688.81;;;9.09;55.19
77867;BME280;67271;59.120;37.970;2023-04-24T00:49:21;99689.81;;;9.01;55.45
77867;BME280;67271;59.120;37.970;2023-04-24T00:51:47;99688.13;;;9.00;55.28
77867;BME280;67271;59.120;37.970;2023-04-24T00:54:15;99687.47;;;8.98;55.54
77867;BME280;67271;59.120;37.970;2023-04-24T00:56:42;99692.28;;;9.03;55.20
77867;BME280;67271;59.120;37.970;2023-04-24T00:59:09;99692.72;;;9.06;55.00
77867;BME280;67271;59.120;37.970;2023-04-24T01:01:35;99684.81;;;9.05;55.39
77867;BME280;67271;59.120;37.970;2023-04-24T01:04:02;99693.13;;;9.03;55.23
77867;BME280;67271;59.120;37.970;2023-04-24T01:06:29;99690.19;;;8.98;55.57
77867;BME280;67271;59.120;37.970;2023-04-24T01:08:58;99685.38;;;8.93;55.71
77867;BME280;67271;59.120;37.970;2023-04-24T01:11:25;99693.06;;;8.97;55.44
77867;BME280;67271;59.120;37.970;2023-04-24T01:13:51;99692.84;;;8.91;55.78
77867;BME280;67271;59.120;37.970;2023-04-24T01:16:17;99695.03;;;8.81;55.87
77867;BME280;67271;59.120;37.970;2023-04-24T01:18:46;99700.00;;;8.78;56.18
77867;BME280;67271;59.120;37.970;2023-04-24T01:21:16;99692.94;;;8.77;56.15
77867;BME280;67271;59.120;37.970;2023-04-24T01:23:45;99697.03;;;8.73;55.73
77867;BME280;67271;59.120;37.970;2023-04-24T01:26:12;99691.66;;;8.73;55.78
77867;BME280;67271;59.120;37.970;2023-04-24T01:28:38;99701.53;;;8.87;55.67
77867;BME280;67271;59.120;37.970;2023-04-24T01:31:05;99704.63;;;8.84;56.07
77867;BME280;67271;59.120;37.970;2023-04-24T01:33:31;99703.31;;;8.80;56.03
77867;BME280;67271;59.120;37.970;2023-04-24T01:35:57;99705.97;;;8.73;56.21
77867;BME280;67271;59.120;37.970;2023-04-24T01:38:23;99700.38;;;8.75;56.29
77867;BME280;67271;59.120;37.970;2023-04-24T01:40:50;99700.56;;;8.73;56.14
77867;BME280;67271;59.120;37.970;2023-04-24T01:43:17;99697.88;;;8.73;56.42
77867;BME280;67271;59.120;37.970;2023-04-24T01:45:43;99697.84;;;8.67;56.30
77867;BME280;67271;59.120;37.970;2023-04-24T01:48:09;99705.69;;;8.62;56.58
77867;BME280;67271;59.120;37.970;2023-04-24T01:50:35;99696.94;;;8.60;56.60
77867;BME280;67271;59.120;37.970;2023-04-24T01:53:02;99701.50;;;8.59;56.81
77867;BME280;67271;59.120;37.970;2023-04-24T01:55:28;99694.91;;;8.62;56.61
77867;BME280;67271;59.120;37.970;2023-04-24T01:57:55;99700.09;;;8.63;56.52
77867;BME280;67271;59.120;37.970;2023-04-24T02:00:22;99697.34;;;8.57;56.76
77867;BME280;67271;59.120;37.970;2023-04-24T02:02:51;99702.75;;;8.57;56.69
77867;BME280;67271;59.120;37.970;2023-04-24T02:05:17;99700.84;;;8.57;57.19
77867;BME280;67271;59.120;37.970;2023-04-24T02:07:43;99702.53;;;8.58;56.89
77867;BME280;67271;59.120;37.970;2023-04-24T02:10:10;99700.84;;;8.57;56.90
77867;BME280;67271;59.120;37.970;2023-04-24T02:12:41;99699.81;;;8.58;56.60
77867;BME280;67271;59.120;37.970;2023-04-24T02:15:07;99696.94;;;8.60;56.75
77867;BME280;67271;59.120;37.970;2023-04-24T02:17:33;99699.44;;;8.61;56.78
77867;BME280;67271;59.120;37.970;2023-04-24T02:19:59;99709.88;;;8.64;56.99
77867;BME280;67271;59.120;37.970;2023-04-24T02:22:25;99705.28;;;8.65;56.94
77867;BME280;67271;59.120;37.970;2023-04-24T02:24:51;99704.47;;;8.64;56.84
77867;BME280;67271;59.120;37.970;2023-04-24T02:27:17;99707.84;;;8.73;56.74
77867;BME280;67271;59.120;37.970;2023-04-24T02:29:42;99707.69;;;8.81;56.59
77867;BME280;67271;59.120;37.970;2023-04-24T02:32:09;99712.91;;;8.82;56.71
77867;BME280;67271;59.120;37.970;2023-04-24T02:34:37;99715.41;;;8.84;56.43
77867;BME280;67271;59.120;37.970;2023-04-24T02:37:04;99716.88;;;8.86;56.38
77867;BME280;67271;59.120;37.970;2023-04-24T02:39:29;99715.44;;;8.90;56.51
77867;BME280;67271;59.120;37.970;2023-04-24T02:41:55;99708.44;;;8.96;56.54
77867;BME280;67271;59.120;37.970;2023-04-24T02:44:21;99720.56;;;9.07;56.30
77867;BME280;67271;59.120;37.970;2023-04-24T02:46:48;99712.53;;;9.20;55.97
77867;BME280;67271;59.120;37.970;2023-04-24T02:49:15;99710.72;;;9.27;55.67
77867;BME280;67271;59.120;37.970;2023-04-24T02:51:41;99716.16;;;9.40;55.52
77867;BME280;67271;59.120;37.970;2023-04-24T02:54:08;99718.75;;;9.55;54.96
77867;BME280;67271;59.120;37.970;2023-04-24T02:56:35;99710.56;;;9.76;54.80
77867;BME280;67271;59.120;37.970;2023-04-24T02:59:02;99730.78;;;10.00;54.08
77867;BME280;67271;59.120;37.970;2023-04-24T03:01:29;99715.28;;;10.22;53.51
77867;BME280;67271;59.120;37.970;2023-04-24T03:03:55;99721.13;;;10.32;53.21
77867;BME280;67271;59.120;37.970;2023-04-24T03:06:21;99723.81;;;10.38;53.59
77867;BME280;67271;59.120;37.970;2023-04-24T03:08:47;99713.00;;;10.45;53.42
77867;BME280;67271;59.120;37.970;2023-04-24T03:11:12;99724.72;;;10.59;53.41
77867;BME280;67271;59.120;37.970;2023-04-24T03:13:41;99718.03;;;10.68;52.95
77867;BME280;67271;59.120;37.970;2023-04-24T03:16:07;99712.00;;;10.79;52.75
77867;BME280;67271;59.120;37.970;2023-04-24T03:18:32;99715.53;;;10.86;52.81
77867;BME280;67271;59.120;37.970;2023-04-24T03:20:58;99717.00;;;10.95;52.20
77867;BME280;67271;59.120;37.970;2023-04-24T03:23:25;99714.91;;;11.10;52.43
77867;BME280;67271;59.120;37.970;2023-04-24T03:25:51;99718.59;;;11.29;51.96
77867;BME280;67271;59.120;37.970;2023-04-24T03:28:19;99718.28;;;11.70;51.16
77867;BME280;67271;59.120;37.970;2023-04-24T03:30:52;99725.78;;;11.68;50.73
77867;BME280;67271;59.120;37.970;2023-04-24T03:33:19;99721.16;;;11.95;50.39
77867;BME280;67271;59.120;37.970;2023-04-24T03:35:55;99712.03;;;13.63;46.81
77867;BME280;67271;59.120;37.970;2023-04-24T03:38:21;99721.91;;;14.12;46.07
77867;BME280;67271;59.120;37.970;2023-04-24T03:41:00;99728.72;;;14.33;45.65
77867;BME280;67271;59.120;37.970;2023-04-24T03:43:52;99723.88;;;14.35;46.07
77867;BME280;67271;59.120;37.970;2023-04-24T03:46:18;99716.56;;;14.89;45.50
77867;BME280;67271;59.120;37.970;2023-04-24T03:48:50;99723.69;;;16.40;42.36
77867;BME280;67271;59.120;37.970;2023-04-24T03:51:18;99725.28;;;16.81;41.78
77867;BME280;67271;59.120;37.970;2023-04-24T03:53:47;99722.03;;;16.10;43.56
77867;BME280;67271;59.120;37.970;2023-04-24T03:56:17;99719.00;;;15.95;43.75
77867;BME280;67271;59.120;37.970;2023-04-24T03:58:43;99729.50;;;15.28;44.84
77867;BME280;67271;59.120;37.970;2023-04-24T04:01:09;99729.03;;;15.66;44.33
77867;BME280;67271;59.120;37.970;2023-04-24T04:03:52;99733.03;;;17.39;40.62
77867;BME280;67271;59.120;37.970;2023-04-24T04:06:22;99725.72;;;18.05;39.48
77867;BME280;67271;59.120;37.970;2023-04-24T04:08:49;99736.59;;;17.39;40.57
77867;BME280;67271;59.120;37.970;2023-04-24T04:11:14;99727.03;;;17.59;40.39
77867;BME280;67271;59.120;37.970;2023-04-24T04:13:41;99738.13;;;17.14;41.15
77867;BME280;67271;59.120;37.970;2023-04-24T04:16:08;99734.94;;;18.21;39.13
77867;BME280;67271;59.120;37.970;2023-04-24T04:18:34;99730.59;;;18.46;39.10
77867;BME280;67271;59.120;37.970;2023-04-24T04:21:01;99731.47;;;18.52;38.72
77867;BME280;67271;59.120;37.970;2023-04-24T04:23:28;99745.09;;;17.98;39.46
77867;BME280;67271;59.120;37.970;2023-04-24T04:26:04;99748.97;;;17.25;40.74
77867;BME280;67271;59.120;37.970;2023-04-24T04:28:46;99745.63;;;16.73;41.57
77867;BME280;67271;59.120;37.970;2023-04-24T04:31:13;99744.00;;;16.32;41.91
77867;BME280;67271;59.120;37.970;2023-04-24T04:33:39;99746.63;;;15.99;42.51
77867;BME280;67271;59.120;37.970;2023-04-24T04:36:07;99743.22;;;15.92;42.35
77867;BME280;67271;59.120;37.970;2023-04-24T04:38:37;99745.13;;;15.79;42.60
77867;BME280;67271;59.120;37.970;2023-04-24T04:41:23;99736.19;;;18.35;38.16
77867;BME280;67271;59.120;37.970;2023-04-24T04:43:49;99739.94;;;18.50;38.08
77867;BME280;67271;59.120;37.970;2023-04-24T04:46:16;99747.19;;;18.13;38.56
77867;BME280;67271;59.120;37.970;2023-04-24T04:49:05;99748.78;;;17.15;40.64
77867;BME280;67271;59.120;37.970;2023-04-24T04:51:31;99741.25;;;17.22;39.80
77867;BME280;67271;59.120;37.970;2023-04-24T04:53:57;99754.84;;;16.84;40.49
77867;BME280;67271;59.120;37.970;2023-04-24T04:56:24;99743.38;;;17.92;38.46
77867;BME280;67271;59.120;37.970;2023-04-24T04:58:50;99744.84;;;17.78;38.75
77867;BME280;67271;59.120;37.970;2023-04-24T05:01:17;99747.38;;;17.63;38.83
77867;BME280;67271;59.120;37.970;2023-04-24T05:03:46;99747.28;;;17.41;39.37
77867;BME280;67271;59.120;37.970;2023-04-24T05:06:14;99756.59;;;17.23;39.60
77867;BME280;67271;59.120;37.970;2023-04-24T05:08:40;99753.13;;;17.28;39.42
77867;BME280;67271;59.120;37.970;2023-04-24T05:11:18;99758.09;;;16.97;40.06
77867;BME280;67271;59.120;37.970;2023-04-24T05:13:44;99758.03;;;16.64;40.44
77867;BME280;67271;59.120;37.970;2023-04-24T05:16:24;99754.75;;;16.50;40.72
77867;BME280;67271;59.120;37.970;2023-04-24T05:18:52;99765.22;;;16.53;40.60
77867;BME280;67271;59.120;37.970;2023-04-24T05:21:23;99761.75;;;16.30;40.89
77867;BME280;67271;59.120;37.970;2023-04-24T05:23:50;99756.91;;;16.20;40.89
77867;BME280;67271;59.120;37.970;2023-04-24T05:26:25;99754.38;;;16.30;40.45
77867;BME280;67271;59.120;37.970;2023-04-24T05:28:51;99755.09;;;16.25;40.80
77867;BME280;67271;59.120;37.970;2023-04-24T05:31:17;99760.06;;;16.29;40.77
77867;BME280;67271;59.120;37.970;2023-04-24T05:33:43;99753.69;;;16.23;40.86
77867;BME280;67271;59.120;37.970;2023-04-24T05:36:10;99753.81;;;16.16;41.31
77867;BME280;67271;59.120;37.970;2023-04-24T05:38:36;99757.13;;;16.18;41.05
77867;BME280;67271;59.120;37.970;2023-04-24T05:41:02;99757.97;;;16.19;41.15
77867;BME280;67271;59.120;37.970;2023-04-24T05:43:27;99754.53;;;16.23;41.26
77867;BME280;67271;59.120;37.970;2023-04-24T05:45:53;99760.41;;;16.32;40.90
77867;BME280;67271;59.120;37.970;2023-04-24T05:48:19;99755.44;;;16.29;41.08
77867;BME280;67271;59.120;37.970;2023-04-24T05:50:45;99757.19;;;16.35;41.03
77867;BME280;67271;59.120;37.970;2023-04-24T05:53:13;99764.53;;;16.46;40.91
77867;BME280;67271;59.120;37.970;2023-04-24T05:55:39;99760.84;;;16.41;40.96
77867;BME280;67271;59.120;37.970;2023-04-24T05:58:05;99756.91;;;16.48;40.80
77867;BME280;67271;59.120;37.970;2023-04-24T06:00:33;99759.75;;;16.53;40.86
77867;BME280;67271;59.120;37.970;2023-04-24T06:03:04;99765.00;;;16.43;41.16
77867;BME280;67271;59.120;37.970;2023-04-24T06:05:30;99757.28;;;16.40;41.24
77867;BME280;67271;59.120;37.970;2023-04-24T06:07:56;99759.34;;;16.33;41.10
77867;BME280;67271;59.120;37.970;2023-04-24T06:10:25;99765.16;;;16.37;40.86
77867;BME280;67271;59.120;37.970;2023-04-24T06:12:51;99770.16;;;16.56;40.77
77867;BME280;67271;59.120;37.970;2023-04-24T06:15:17;99762.34;;;16.48;40.67
77867;BME280;67271;59.120;37.970;2023-04-24T06:17:57;99770.75;;;16.58;40.66
77867;BME280;67271;59.120;37.970;2023-04-24T06:20:23;99771.97;;;16.79;40.50
77867;BME280;67271;59.120;37.970;2023-04-24T06:22:49;99774.00;;;17.17;39.87
77867;BME280;67271;59.120;37.970;2023-04-24T06:25:15;99773.66;;;17.30;39.76
77867;BME280;67271;59.120;37.970;2023-04-24T06:27:41;99770.00;;;17.25;39.84
77867;BME280;67271;59.120;37.970;2023-04-24T06:30:08;99769.59;;;17.16;40.24
77867;BME280;67271;59.120;37.970;2023-04-24T06:32:34;99776.91;;;17.11;40.33
77867;BME280;67271;59.120;37.970;2023-04-24T06:35:00;99777.38;;;17.08;40.37
77867;BME280;67271;59.120;37.970;2023-04-24T06:37:26;99766.38;;;17.19;40.10
77867;BME280;67271;59.120;37.970;2023-04-24T06:39:52;99772.31;;;17.50;39.70
77867;BME280;67271;59.120;37.970;2023-04-24T06:42:18;99768.50;;;17.67;39.39
77867;BME280;67271;59.120;37.970;2023-04-24T06:44:48;99763.81;;;17.85;39.23
77867;BME280;67271;59.120;37.970;2023-04-24T06:47:14;99764.25;;;17.98;38.96
77867;BME280;67271;59.120;37.970;2023-04-24T06:49:41;99763.56;;;18.08;39.09
77867;BME280;67271;59.120;37.970;2023-04-24T06:52:07;99761.84;;;18.24;38.97
77867;BME280;67271;59.120;37.970;2023-04-24T06:54:33;99765.72;;;18.28;38.84
77867;BME280;67271;59.120;37.970;2023-04-24T06:56:59;99762.69;;;18.51;38.76
77867;BME280;67271;59.120;37.970;2023-04-24T06:59:29;99766.38;;;18.57;38.41
77867;BME280;67271;59.120;37.970;2023-04-24T07:01:56;99763.22;;;18.48;38.54
77867;BME280;67271;59.120;37.970;2023-04-24T07:04:22;99770.81;;;18.63;38.22
77867;BME280;67271;59.120;37.970;2023-04-24T07:06:50;99771.72;;;18.73;38.49
77867;BME280;67271;59.120;37.970;2023-04-24T07:09:16;99766.44;;;18.93;37.76
77867;BME280;67271;59.120;37.970;2023-04-24T07:11:44;99763.97;;;18.92;37.66
77867;BME280;67271;59.120;37.970;2023-04-24T07:14:11;99775.97;;;18.86;38.03
77867;BME280;67271;59.120;37.970;2023-04-24T07:16:37;99771.56;;;18.85;37.91
77867;BME280;67271;59.120;37.970;2023-04-24T07:19:03;99768.63;;;18.65;38.17
77867;BME280;67271;59.120;37.970;2023-04-24T07:21:29;99770.81;;;18.63;38.50
77867;BME280;67271;59.120;37.970;2023-04-24T07:23:57;99769.88;;;18.79;37.98
77867;BME280;67271;59.120;37.970;2023-04-24T07:26:23;99765.84;;;18.86;37.78
77867;BME280;67271;59.120;37.970;2023-04-24T07:28:48;99769.75;;;18.95;37.58
77867;BME280;67271;59.120;37.970;2023-04-24T07:31:14;99775.66;;;18.82;37.75
77867;BME280;67271;59.120;37.970;2023-04-24T07:33:40;99773.63;;;18.73;37.63
77867;BME280;67271;59.120;37.970;2023-04-24T07:36:06;99770.63;;;19.01;37.37
77867;BME280;67271;59.120;37.970;2023-04-24T07:38:32;99767.34;;;19.36;37.05
77867;BME280;67271;59.120;37.970;2023-04-24T07:40:58;99779.06;;;19.58;36.88
77867;BME280;67271;59.120;37.970;2023-04-24T07:43:24;99768.25;;;19.89;36.48
77867;BME280;67271;59.120;37.970;2023-04-24T07:45:51;99766.31;;;20.41;35.92
77867;BME280;67271;59.120;37.970;2023-04-24T07:48:17;99769.91;;;20.57;35.39
77867;BME280;67271;59.120;37.970;2023-04-24T07:50:45;99771.31;;;20.65;35.50
77867;BME280;67271;59.120;37.970;2023-04-24T07:53:11;99763.91;;;20.91;35.07
77867;BME280;67271;59.120;37.970;2023-04-24T07:55:37;99764.47;;;21.08;34.92
77867;BME280;67271;59.120;37.970;2023-04-24T07:58:03;99775.22;;;21.04;34.91
77867;BME280;67271;59.120;37.970;2023-04-24T08:00:29;99762.25;;;20.74;35.20
77867;BME280;67271;59.120;37.970;2023-04-24T08:02:55;99765.25;;;20.68;35.18
77867;BME280;67271;59.120;37.970;2023-04-24T08:05:21;99766.94;;;20.79;35.12
77867;BME280;67271;59.120;37.970;2023-04-24T08:07:47;99758.72;;;21.09;34.74
77867;BME280;67271;59.120;37.970;2023-04-24T08:10:15;99774.13;;;21.20;34.56
77867;BME280;67271;59.120;37.970;2023-04-24T08:12:43;99774.09;;;20.90;34.75
77867;BME280;67271;59.120;37.970;2023-04-24T08:15:09;99764.44;;;20.72;34.82
77867;BME280;67271;59.120;37.970;2023-04-24T08:17:35;99760.56;;;20.68;35.00
77867;BME280;67271;59.120;37.970;2023-04-24T08:20:02;99764.47;;;20.88;34.64
77867;BME280;67271;59.120;37.970;2023-04-24T08:22:31;99758.44;;;21.16;34.53
77867;BME280;67271;59.120;37.970;2023-04-24T08:25:00;99755.16;;;21.24;34.37
77867;BME280;67271;59.120;37.970;2023-04-24T08:27:29;99749.63;;;21.29;34.44
77867;BME280;67271;59.120;37.970;2023-04-24T08:29:57;99745.53;;;21.27;34.13
77867;BME280;67271;59.120;37.970;2023-04-24T08:32:24;99752.38;;;21.44;34.21
77867;BME280;67271;59.120;37.970;2023-04-24T08:34:50;99754.53;;;21.73;33.57
77867;BME280;67271;59.120;37.970;2023-04-24T08:37:18;99750.94;;;21.77;33.76
77867;BME280;67271;59.120;37.970;2023-04-24T08:39:44;99741.56;;;21.73;33.62
77867;BME280;67271;59.120;37.970;2023-04-24T08:42:11;99740.00;;;21.47;34.31
77867;BME280;67271;59.120;37.970;2023-04-24T08:44:38;99751.84;;;21.37;34.27
77867;BME280;67271;59.120;37.970;2023-04-24T08:47:05;99736.72;;;21.35;34.02
77867;BME280;67271;59.120;37.970;2023-04-24T08:49:33;99738.91;;;21.12;34.07
77867;BME280;67271;59.120;37.970;2023-04-24T08:52:02;99736.16;;;20.97;33.99
77867;BME280;67271;59.120;37.970;2023-04-24T08:54:28;99732.56;;;20.92;34.13
77867;BME280;67271;59.120;37.970;2023-04-24T08:56:59;99742.75;;;20.81;34.04
77867;BME280;67271;59.120;37.970;2023-04-24T08:59:33;99729.25;;;20.79;33.84
77867;BME280;67271;59.120;37.970;2023-04-24T09:02:01;99735.00;;;20.68;33.95
77867;BME280;67271;59.120;37.970;2023-04-24T09:04:29;99731.16;;;20.69;33.88
77867;BME280;67271;59.120;37.970;2023-04-24T09:06:57;99735.03;;;20.88;33.39
77867;BME280;67271;59.120;37.970;2023-04-24T09:09:24;99725.97;;;21.03;33.22
77867;BME280;67271;59.120;37.970;2023-04-24T09:11:51;99720.47;;;21.03;33.09
77867;BME280;67271;59.120;37.970;2023-04-24T09:14:19;99722.94;;;21.04;33.20
77867;BME280;67271;59.120;37.970;2023-04-24T09:16:46;99719.91;;;21.11;33.09
77867;BME280;67271;59.120;37.970;2023-04-24T09:19:12;99722.41;;;21.12;33.12
77867;BME280;67271;59.120;37.970;2023-04-24T09:21:38;99722.97;;;21.24;32.70
77867;BME280;67271;59.120;37.970;2023-04-24T09:24:07;99719.59;;;21.43;31.92
77867;BME280;67271;59.120;37.970;2023-04-24T09:26:35;99715.44;;;21.66;31.68
77867;BME280;67271;59.120;37.970;2023-04-24T09:29:03;99712.94;;;21.74;31.36
77867;BME280;67271;59.120;37.970;2023-04-24T09:31:29;99710.72;;;21.76;31.19
77867;BME280;67271;59.120;37.970;2023-04-24T09:33:58;99700.25;;;21.78;30.91
77867;BME280;67271;59.120;37.970;2023-04-24T09:36:32;99706.03;;;21.77;30.66
77867;BME280;67271;59.120;37.970;2023-04-24T09:39:08;99702.72;;;21.85;30.20
77867;BME280;67271;59.120;37.970;2023-04-24T09:41:44;99708.56;;;21.58;30.24
77867;BME280;67271;59.120;37.970;2023-04-24T09:44:13;99708.91;;;21.41;30.29
77867;BME280;67271;59.120;37.970;2023-04-24T09:46:41;99708.06;;;21.46;29.97
77867;BME280;67271;59.120;37.970;2023-04-24T09:49:22;99704.34;;;22.01;29.67
77867;BME280;67271;59.120;37.970;2023-04-24T09:51:49;99693.91;;;22.42;28.61
77867;BME280;67271;59.120;37.970;2023-04-24T09:54:20;99692.28;;;22.36;28.57
77867;BME280;67271;59.120;37.970;2023-04-24T09:56:50;99688.38;;;22.47;28.84
77867;BME280;67271;59.120;37.970;2023-04-24T09:59:19;99676.09;;;22.19;28.61
77867;BME280;67271;59.120;37.970;2023-04-24T10:01:45;99680.28;;;22.17;28.50
77867;BME280;67271;59.120;37.970;2023-04-24T10:04:25;99689.66;;;22.11;28.29
77867;BME280;67271;59.120;37.970;2023-04-24T10:06:52;99687.22;;;22.04;28.22
77867;BME280;67271;59.120;37.970;2023-04-24T10:09:21;99687.56;;;21.87;28.36
77867;BME280;67271;59.120;37.970;2023-04-24T10:11:49;99681.81;;;21.69;28.62
77867;BME280;67271;59.120;37.970;2023-04-24T10:14:17;99696.19;;;21.60;28.54
77867;BME280;67271;59.120;37.970;2023-04-24T10:16:44;99683.28;;;21.46;28.50
77867;BME280;67271;59.120;37.970;2023-04-24T10:19:15;99690.97;;;21.54;28.46
77867;BME280;67271;59.120;37.970;2023-04-24T10:21:43;99673.06;;;21.56;28.32
77867;BME280;67271;59.120;37.970;2023-04-24T10:24:13;99689.84;;;21.60;28.37
77867;BME280;67271;59.120;37.970;2023-04-24T10:26:41;99695.63;;;21.58;28.31
77867;BME280;67271;59.120;37.970;2023-04-24T10:29:07;99690.41;;;21.52;28.42
77867;BME280;67271;59.120;37.970;2023-04-24T10:31:38;99685.75;;;21.57;28.74
77867;BME280;67271;59.120;37.970;2023-04-24T10:34:06;99673.84;;;21.72;28.37
77867;BME280;67271;59.120;37.970;2023-04-24T10:36:38;99677.13;;;21.79;28.31
77867;BME280;67271;59.120;37.970;2023-04-24T10:39:08;99676.31;;;21.69;28.89
77867;BME280;67271;59.120;37.970;2023-04-24T10:41:37;99679.41;;;21.47;28.51
77867;BME280;67271;59.120;37.970;2023-04-24T10:44:11;99673.13;;;21.31;28.77
77867;BME280;67271;59.120;37.970;2023-04-24T10:46:39;99680.03;;;21.23;28.83
77867;BME280;67271;59.120;37.970;2023-04-24T10:49:06;99669.56;;;21.26;28.68
77867;BME280;67271;59.120;37.970;2023-04-24T10:51:51;99668.47;;;21.27;28.80
77867;BME280;67271;59.120;37.970;2023-04-24T10:54:35;99673.41;;;21.35;28.57
77867;BME280;67271;59.120;37.970;2023-04-24T10:57:33;99663.50;;;21.23;28.81
77867;BME280;67271;59.120;37.970;2023-04-24T11:00:20;99658.50;;;21.36;28.82
77867;BME280;67271;59.120;37.970;2023-04-24T11:02:47;99658.00;;;21.34;28.45
77867;BME280;67271;59.120;37.970;2023-04-24T11:05:16;99665.41;;;21.38;28.65
77867;BME280;67271;59.120;37.970;2023-04-24T11:08:11;99654.66;;;21.42;28.45
77867;BME280;67271;59.120;37.970;2023-04-24T11:10:44;99655.19;;;21.44;28.42
77867;BME280;67271;59.120;37.970;2023-04-24T11:13:14;99657.41;;;21.47;28.40
77867;BME280;67271;59.120;37.970;2023-04-24T11:15:41;99652.13;;;21.50;28.14
77867;BME280;67271;59.120;37.970;2023-04-24T11:18:15;99657.94;;;21.44;28.12
77867;BME280;67271;59.120;37.970;2023-04-24T11:20:45;99650.00;;;21.32;28.24
77867;BME280;67271;59.120;37.970;2023-04-24T11:23:13;99648.06;;;21.38;28.47
77867;BME280;67271;59.120;37.970;2023-04-24T11:25:41;99644.22;;;21.39;28.73
77867;BME280;67271;59.120;37.970;2023-04-24T11:28:07;99644.47;;;21.42;28.31
77867;BME280;67271;59.120;37.970;2023-04-24T11:30:33;99650.84;;;21.33;28.17
77867;BME280;67271;59.120;37.970;2023-04-24T11:33:03;99643.38;;;21.38;28.26
77867;BME280;67271;59.120;37.970;2023-04-24T11:35:35;99648.06;;;21.28;28.47
77867;BME280;67271;59.120;37.970;2023-04-24T11:38:03;99648.66;;;21.24;28.20
77867;BME280;67271;59.120;37.970;2023-04-24T11:40:30;99649.47;;;21.25;28.57
77867;BME280;67271;59.120;37.970;2023-04-24T11:42:56;99649.72;;;21.29;28.46
77867;BME280;67271;59.120;37.970;2023-04-24T11:45:26;99647.28;;;21.27;28.40
77867;BME280;67271;59.120;37.970;2023-04-24T11:47:55;99647.00;;;21.23;28.04
77867;BME280;67271;59.120;37.970;2023-04-24T11:50:25;99626.09;;;21.17;28.10
77867;BME280;67271;59.120;37.970;2023-04-24T11:52:53;99628.53;;;21.14;28.10
77867;BME280;67271;59.120;37.970;2023-04-24T11:57:47;99632.16;;;21.19;28.34
77867;BME280;67271;59.120;37.970;2023-04-24T12:00:18;99614.78;;;21.34;28.21
77867;BME280;67271;59.120;37.970;2023-04-24T12:02:44;99622.75;;;21.31;28.08
77867;BME280;67271;59.120;37.970;2023-04-24T12:05:26;99613.94;;;21.29;27.76
77867;BME280;67271;59.120;37.970;2023-04-24T12:07:53;99617.28;;;21.26;27.99
77867;BME280;67271;59.120;37.970;2023-04-24T12:10:23;99609.81;;;21.31;28.10
77867;BME280;67271;59.120;37.970;2023-04-24T12:12:50;99610.06;;;21.40;27.97
77867;BME280;67271;59.120;37.970;2023-04-24T12:15:21;99592.44;;;21.41;27.71
77867;BME280;67271;59.120;37.970;2023-04-24T12:17:47;99605.38;;;21.45;27.81
77867;BME280;67271;59.120;37.970;2023-04-24T12:20:15;99612.25;;;21.48;27.86
77867;BME280;67271;59.120;37.970;2023-04-24T12:22:56;99604.84;;;21.38;27.62
77867;BME280;67271;59.120;37.970;2023-04-24T12:30:30;99591.34;;;21.37;27.73
77867;BME280;67271;59.120;37.970;2023-04-24T12:32:58;99594.66;;;21.39;27.50
77867;BME280;67271;59.120;37.970;2023-04-24T12:35:27;99593.56;;;21.40;27.82
77867;BME280;67271;59.120;37.970;2023-04-24T12:37:53;99593.81;;;21.38;27.95
77867;BME280;67271;59.120;37.970;2023-04-24T12:40:21;99589.44;;;21.32;27.73
77867;BME280;67271;59.120;37.970;2023-04-24T12:42:51;99588.63;;;21.32;27.60
77867;BME280;67271;59.120;37.970;2023-04-24T12:45:18;99578.44;;;21.32;27.43
77867;BME280;67271;59.120;37.970;2023-04-24T12:47:45;99586.97;;;21.31;27.54
77867;BME280;67271;59.120;37.970;2023-04-24T12:50:13;99578.16;;;21.29;27.58
77867;BME280;67271;59.120;37.970;2023-04-24T12:52:40;99584.78;;;21.33;27.66
77867;BME280;67271;59.120;37.970;2023-04-24T12:55:06;99575.41;;;21.29;27.56
77867;BME280;67271;59.120;37.970;2023-04-24T12:57:37;99575.19;;;21.20;27.45
77867;BME280;67271;59.120;37.970;2023-04-24T13:00:04;99580.94;;;21.23;27.48
77867;BME280;67271;59.120;37.970;2023-04-24T13:02:31;99577.88;;;21.30;27.78
77867;BME280;67271;59.120;37.970;2023-04-24T13:04:58;99572.66;;;21.29;27.56